Lacombe, Louisiana
Current Conditions -  °F | °C
As of 10:53 AM on Saturday 20 Dec 2014 (Local Time) from KASD Reporting Station
Overcast Overcast  
Wind Chill: 52°   Ceiling: 800
Heat Index: 52°   Visibility: 10mi
Dew Point: 47°   Wind: 12mph
Humidity: 83%   Direction: 20°NNE
Pressure: 30.16"   Gusts: NA
Location:  30.31°N, 89.94°W
Report Text: KASD 201653Z AUTO 02010KT 10SM OVC008 11/08 A3016 RMK AO2 SLP212 T01110083
Loading
Personal Weather Stations






























Interactive Weather Map New forecast layout! Learn more

10-Day Weather Forecast

Advertisements
Track Severe Weather on mobile